Terminal Aerodrome Forecast
Issued by NWS Jackson, KY

Home | Current Version | Previous Version | Text Only | Print | Product List | Glossary Off
Versions: 1 2 3 4 5 6 7 8 9 10 11 12 13 14 15 16

000
FTUS43 KJKL 021120
TAFJKL
TAF
KJKL 021120Z 0212/0312 00000KT P6SM SCT250
     FM021500 VRB06KT P6SM SCT040
     FM030000 00000KT P6SM SCT250
     FM030900 00000KT 4SM BR SKC=

USA.gov is the U.S. government's official web portal to all federal, state and local government web resources and services.